Peotone Weather
Peotone-Weather Station Historical Data
 
Daily Summary for June 06, 2020 Units:  English    Metric   Both
Daily Weekly Monthly Yearly Custom
  Current: High: Low: Average:
Temperature: 72 °F 72.5 °F 64 °F 67.6 °F
Dew Point: 65.3 °F 65.9 °F 62.8 °F 64.5 °F
Humidity: 79.4% 96% 78.4% 90%
Wind Speed: 9.8mph 9.8mph 0.3mph 2.7mph
Wind Gust: 14.9mph 14.9mph - -
WindNorth - - SSW
Pressure: 30.02 in 30.02 in 29.91 in -
Precipitation: 0.00 in      
Historical Graphs
 
 
Tabular Data for June 06, 2020
Time Temperature Dew Point Pressure Wind Wind Speed Wind Gust Humidity Rainfall Rate (Hourly) solar
00:04 72.5 °F 65.4 °F 29.91 in NNW 1.1 mph 3.4 mph 78.4% 0.00 in 0 W/m2
00:09 72.1 °F 65.2 °F 29.91 in NNW 2 mph 6.9 mph 79% 0.00 in 0 W/m2
00:14 71.8 °F 65 °F 29.91 in NNW 3.6 mph 6.9 mph 79% 0.00 in 0 W/m2
00:19 71.6 °F 64.8 °F 29.92 in NNW 3.1 mph 6.9 mph 79.1% 0.00 in 0 W/m2
00:24 71.2 °F 64.7 °F 29.92 in North 4.3 mph 8.1 mph 80% 0.00 in 0 W/m2
00:29 71.1 °F 64.7 °F 29.92 in North 2.5 mph 8.1 mph 80.2% 0.00 in 0 W/m2
00:34 71 °F 64.9 °F 29.92 in NNE 1.8 mph 5.8 mph 81.3% 0.00 in 0 W/m2
00:39 70.8 °F 65.1 °F 29.92 in North 2.8 mph 5.8 mph 82% 0.00 in 0 W/m2
00:44 70.8 °F 65.1 °F 29.92 in North 3.7 mph 5.8 mph 82.2% 0.00 in 0 W/m2
00:49 70.4 °F 65 °F 29.92 in North 3 mph 5.8 mph 83.1% 0.00 in 0 W/m2
00:54 70 °F 65.1 °F 29.92 in NNE 1.6 mph 5.8 mph 84.4% 0.00 in 0 W/m2
00:59 69.6 °F 65 °F 29.92 in North 1.8 mph 3.4 mph 85.2% 0.00 in 0 W/m2
01:04 69.4 °F 65.1 °F 29.92 in NNE 2.6 mph 5.8 mph 86.3% 0.00 in 0 W/m2
01:09 69.5 °F 65.3 °F 29.92 in North 2.7 mph 5.8 mph 86.5% 0.00 in 0 W/m2
01:14 69.3 °F 65.3 °F 29.92 in NNE 1.4 mph 4.6 mph 87% 0.00 in 0 W/m2
01:19 69.2 °F 65.3 °F 29.92 in North 1.1 mph 4.6 mph 87.5% 0.00 in 0 W/m2
01:24 69.2 °F 65.5 °F 29.92 in North 2.7 mph 4.6 mph 87.8% 0.00 in 0 W/m2
01:29 69.1 °F 65.4 °F 29.92 in North 1.6 mph 4.6 mph 88% 0.00 in 0 W/m2
01:34 69 °F 65.3 °F 29.92 in North 1 mph 3.4 mph 88.2% 0.00 in 0 W/m2
01:39 68.7 °F 65.2 °F 29.92 in North 0.7 mph 3.4 mph 88.6% 0.00 in 0 W/m2
01:44 68.5 °F 65.1 °F 29.92 in North 1.3 mph 3.4 mph 89% 0.00 in 0 W/m2
01:49 68.3 °F 65.1 °F 29.92 in North 1.3 mph 5.8 mph 89.5% 0.00 in 0 W/m2
01:54 68 °F 64.9 °F 29.92 in North 1.7 mph 5.8 mph 89.8% 0.00 in 0 W/m2
01:59 67.8 °F 65.1 °F 29.92 in North 2.3 mph 4.6 mph 91% 0.00 in 0 W/m2
02:04 67.8 °F 65.1 °F 29.92 in North 2.1 mph 4.6 mph 91.2% 0.00 in 0 W/m2
02:09 67.7 °F 65 °F 29.92 in North 2.4 mph 4.6 mph 91.2% 0.00 in 0 W/m2
02:14 67.4 °F 65 °F 29.92 in North 2.4 mph 5.8 mph 92.1% 0.00 in 0 W/m2
02:19 67.4 °F 65.3 °F 29.92 in North 3.2 mph 5.8 mph 93% 0.00 in 0 W/m2
02:24 67.4 °F 65.3 °F 29.92 in NNE 2.9 mph 5.8 mph 92.8% 0.00 in 0 W/m2
02:29 67.5 °F 65.2 °F 29.92 in North 2.6 mph 5.8 mph 92.3% 0.00 in 0 W/m2
02:34 67.4 °F 65 °F 29.92 in North 3.1 mph 6.9 mph 92.1% 0.00 in 0 W/m2
02:39 67.3 °F 64.9 °F 29.93 in North 3.4 mph 6.9 mph 92% 0.00 in 0 W/m2
02:44 67.1 °F 64.8 °F 29.93 in North 2.5 mph 5.8 mph 92.2% 0.00 in 0 W/m2
02:49 67.1 °F 64.7 °F 29.93 in North 2.2 mph 4.6 mph 92% 0.00 in 0 W/m2
02:54 67 °F 64.6 °F 29.93 in NNE 2.5 mph 5.8 mph 92% 0.00 in 0 W/m2
02:59 67 °F 64.6 °F 29.93 in North 3.1 mph 5.8 mph 92% 0.00 in 0 W/m2
03:04 66.8 °F 64.5 °F 29.93 in North 2.6 mph 5.8 mph 92.1% 0.00 in 0 W/m2
03:09 66.5 °F 64.4 °F 29.93 in North 3.2 mph 4.6 mph 93% 0.00 in 0 W/m2
03:14 66.4 °F 64.3 °F 29.93 in NNE 2.3 mph 4.6 mph 93% 0.00 in 0 W/m2
03:19 66.3 °F 64.3 °F 29.93 in North 2.2 mph 4.6 mph 93% 0.00 in 0 W/m2
03:24 66.2 °F 64.2 °F 29.94 in North 2.2 mph 4.6 mph 93.2% 0.00 in 0 W/m2
03:29 66.1 °F 64.3 °F 29.94 in North 2.5 mph 4.6 mph 93.7% 0.00 in 0 W/m2
03:34 66.1 °F 64.3 °F 29.94 in North 2 mph 4.6 mph 94% 0.00 in 0 W/m2
03:39 65.9 °F 64.1 °F 29.94 in North 0.7 mph 3.4 mph 94% 0.00 in 0 W/m2
03:44 65.7 °F 64 °F 29.94 in North 1.5 mph 3.4 mph 94% 0.00 in 0 W/m2
03:49 65.7 °F 63.9 °F 29.94 in North 0.9 mph 3.4 mph 94% 0.00 in 0 W/m2
03:54 65.7 °F 63.9 °F 29.94 in North 0.8 mph 3.4 mph 94% 0.00 in 0 W/m2
03:59 65.5 °F 63.9 °F 29.94 in North 2.3 mph 3.4 mph 94.5% 0.00 in 0 W/m2
04:04 65.4 °F 63.9 °F 29.94 in North 0.9 mph 3.4 mph 94.8% 0.00 in 0 W/m2
04:09 65.4 °F 64 °F 29.95 in North 0.3 mph 3.4 mph 95% 0.00 in 0 W/m2
04:14 65.3 °F 63.9 °F 29.95 in North 1.6 mph 3.4 mph 95% 0.00 in 0 W/m2
04:19 65.3 °F 63.8 °F 29.95 in North 2.2 mph 4.6 mph 95% 0.00 in 0 W/m2
04:24 65.2 °F 63.7 °F 29.95 in NNW 1.9 mph 4.6 mph 95% 0.00 in 0 W/m2
04:29 65.1 °F 63.6 °F 29.95 in NNW 2.7 mph 5.8 mph 95% 0.00 in 0 W/m2
04:34 65 °F 63.5 °F 29.95 in NNW 3.2 mph 5.8 mph 95% 0.00 in 0 W/m2
04:39 65 °F 63.5 °F 29.95 in NNW 2.4 mph 4.6 mph 95% 0.00 in 0 W/m2
04:44 64.9 °F 63.5 °F 29.96 in NNW 0.9 mph 3.4 mph 95.1% 0.00 in 0 W/m2
04:49 64.7 °F 63.4 °F 29.96 in NNW 1.7 mph 3.4 mph 95.3% 0.00 in 0 W/m2
04:54 64.7 °F 63.4 °F 29.96 in North 1.7 mph 3.4 mph 95.5% 0.00 in 0 W/m2
04:59 64.6 °F 63.2 °F 29.97 in North 1.5 mph 3.4 mph 95% 0.00 in 0 W/m2
05:04 64.5 °F 63.2 °F 29.97 in NNW 1.3 mph 3.4 mph 95.4% 0.00 in 0 W/m2
05:09 64.4 °F 63.2 °F 29.97 in NNW 3.6 mph 8.1 mph 95.8% 0.00 in 0 W/m2
05:14 64.4 °F 63.2 °F 29.97 in North 4.1 mph 8.1 mph 95.9% 0.00 in 0 W/m2
05:19 64.4 °F 63.1 °F 29.98 in NNW 2.5 mph 6.9 mph 95.6% 0.00 in 7 W/m2
05:24 64.2 °F 62.9 °F 29.98 in North 2.4 mph 4.6 mph 95.5% 0.00 in 11 W/m2
05:29 64 °F 62.8 °F 29.98 in NNW 1.1 mph 4.6 mph 96% 0.00 in 18 W/m2
05:34 64.1 °F 62.9 °F 29.98 in NNW 0.8 mph 3.4 mph 96% 0.00 in 23 W/m2
05:39 64.1 °F 63 °F 29.98 in North 1.2 mph 3.4 mph 96% 0.00 in 32 W/m2
05:44 64.3 °F 63.2 °F 29.99 in NNW 1.9 mph 4.6 mph 96% 0.00 in 40 W/m2
05:49 64.7 °F 63.5 °F 29.99 in NW 3.2 mph 5.8 mph 96% 0.00 in 49 W/m2
05:54 65.1 °F 63.8 °F 29.99 in NW 3.9 mph 6.9 mph 95.3% 0.00 in 56 W/m2
05:59 65.6 °F 64 °F 29.99 in NNW 2.7 mph 6.9 mph 94.6% 0.00 in 62 W/m2
06:04 65.9 °F 64.1 °F 29.99 in NNW 2.3 mph 4.6 mph 94% 0.00 in 65 W/m2
06:09 66.2 °F 64.2 °F 29.99 in NNW 2.5 mph 4.6 mph 93.4% 0.00 in 65 W/m2
06:14 66.5 °F 64.4 °F 29.99 in NNW 2.5 mph 4.6 mph 93% 0.00 in 67 W/m2
06:19 66.8 °F 64.7 °F 29.99 in NNW 2.5 mph 5.8 mph 92.9% 0.00 in 79 W/m2
06:24 67.1 °F 64.7 °F 30.00 in NNW 4.3 mph 6.9 mph 92% 0.00 in 98 W/m2
06:29 67.4 °F 65 °F 30.00 in NW 2.6 mph 6.9 mph 91.8% 0.00 in 163 W/m2
06:34 67.9 °F 65.2 °F 30.00 in NW 3.5 mph 5.8 mph 91% 0.00 in 142 W/m2
06:39 68.3 °F 65.3 °F 30.00 in NW 3 mph 6.9 mph 90.3% 0.00 in 181 W/m2
06:44 68.7 °F 65.5 °F 30.00 in NNW 3.1 mph 6.9 mph 89.5% 0.00 in 216 W/m2
06:49 69.2 °F 65.6 °F 30.00 in NNW 4.6 mph 8.1 mph 88.4% 0.00 in 216 W/m2
06:54 69.3 °F 65.6 °F 30.00 in NNW 4 mph 9.2 mph 87.8% 0.00 in 193 W/m2
06:59 69.4 °F 65.5 °F 30.01 in NNW 4 mph 9.2 mph 87.5% 0.00 in 199 W/m2
07:04 69.6 °F 65.7 °F 30.01 in NW 3.8 mph 8.1 mph 87.4% 0.00 in 271 W/m2
07:09 70.1 °F 65.6 °F 30.01 in NNW 1.8 mph 6.9 mph 85.8% 0.00 in 334 W/m2
07:14 70.8 °F 65.9 °F 30.01 in NNW 4.4 mph 8.1 mph 84.5% 0.00 in 346 W/m2
07:19 71.3 °F 65.5 °F 30.01 in North 6.3 mph 10.3 mph 81.8% 0.00 in 306 W/m2
07:24 71.5 °F 65.3 °F 30.02 in North 7.6 mph 12.6 mph 80.8% 0.00 in 369 W/m2
07:29 71.6 °F 65.4 °F 30.02 in North 7.5 mph 12.6 mph 80.9% 0.00 in 380 W/m2
07:34 71.7 °F 65.5 °F 30.02 in North 8.5 mph 13.8 mph 80.8% 0.00 in 394 W/m2
07:38 72 °F 65.3 °F 30.02 in North 9.8 mph 14.9 mph 79.4% 0.00 in 392 W/m2
Peotne Weather
Compliments of Weather Underground - 2 mb